Time;durP1;ratioP1;P1;durP2;ratioP2;P2;SDS_P1;SDS_P2;PMS_P1;PMS_P2;Temp;Humidity;BMP_temperature;BMP_pressure;BME280_temperature;BME280_humidity;BME280_pressure;Samples;Min_cycle;Max_cycle;Signal;HPM_P1;HPM_P2
2022/05/24 00:00:24;;;;;;;11.02;5.03;;;;;;;;;;4966058;28;20443;-81
2022/05/24 00:02:50;;;;;;;12.25;5.88;;;;;;;;;;4971291;28;20044;-81
2022/05/24 00:05:16;;;;;;;17.48;5.93;;;;;;;;;;4971142;28;20026;-81
2022/05/24 00:07:43;;;;;;;13.13;7.13;;;;;;;;;;4972019;28;20145;-81
2022/05/24 00:10:10;;;;;;;12.93;7.35;;;;;;;;;;4965194;28;20046;-81
2022/05/24 00:12:38;;;;;;;12.82;7.60;;;;;;;;;;4969585;28;20045;-81
2022/05/24 00:15:23;;;;;;;16.00;6.75;;;;;;;;;;4967676;28;20039;-81
2022/05/24 00:18:09;;;;;;;17.83;8.10;;;;;;;;;;4969486;28;20088;-80
2022/05/24 00:20:35;;;;;;;15.65;7.90;;;;;;;;;;4971252;28;20490;-81
2022/05/24 00:23:01;;;;;;;18.15;8.05;;;;;;;;;;4982108;28;20034;-81
2022/05/24 00:25:28;;;;;;;14.68;7.20;;;;;;;;;;4969868;28;20034;-81
2022/05/24 00:27:54;;;;;;;20.23;8.05;;;;;;;;;;4956767;28;20124;-82
2022/05/24 00:30:21;;;;;;;15.93;8.07;;;;;;;;;;4982262;28;20502;-81
2022/05/24 00:32:47;;;;;;;19.88;8.20;;;;;;;;;;4968697;28;20492;-80
2022/05/24 00:35:13;;;;;;;14.35;8.27;;;;;;;;;;4966927;28;20030;-81
2022/05/24 00:37:41;;;;;;;16.17;8.57;;;;;;;;;;4979806;28;20027;-81
2022/05/24 00:40:08;;;;;;;15.65;8.68;;;;;;;;;;4965080;28;21122;-81
2022/05/24 00:42:35;;;;;;;15.05;7.78;;;;;;;;;;4964705;28;20493;-81
2022/05/24 00:45:03;;;;;;;9.43;5.38;;;;;;;;;;4964663;28;20122;-82
2022/05/24 00:47:38;;;;;;;23.10;7.25;;;;;;;;;;4963762;28;20034;-81
2022/05/24 00:50:07;;;;;;;15.50;6.47;;;;;;;;;;4963376;28;20047;-81
2022/05/24 00:52:39;;;;;;;17.73;7.88;;;;;;;;;;4978414;28;20054;-81
2022/05/24 00:55:05;;;;;;;16.85;7.22;;;;;;;;;;4982646;28;20049;-81
2022/05/24 00:57:36;;;;;;;15.40;7.07;;;;;;;;;;4959054;28;20034;-81
2022/05/24 01:00:02;;;;;;;14.13;6.28;;;;;;;;;;4967162;28;20078;-81
2022/05/24 01:02:28;;;;;;;13.32;6.30;;;;;;;;;;4955831;28;20034;-81
2022/05/24 01:04:54;;;;;;;11.60;5.40;;;;;;;;;;4965392;28;20033;-81
2022/05/24 01:07:20;;;;;;;16.38;6.65;;;;;;;;;;4955037;28;20035;-81
2022/05/24 01:09:59;;;;;;;12.63;3.70;;;;;;;;;;4945408;28;20761;-82
2022/05/24 01:12:27;;;;;;;14.38;6.03;;;;;;;;;;4950227;28;20367;-81
2022/05/24 01:14:54;;;;;;;9.85;5.70;;;;;;;;;;4955059;28;20240;-81
2022/05/24 01:17:21;;;;;;;12.02;5.47;;;;;;;;;;4967654;28;20038;-81
2022/05/24 01:19:48;;;;;;;12.52;5.75;;;;;;;;;;4954495;28;20533;-81
2022/05/24 01:22:14;;;;;;;12.60;5.93;;;;;;;;;;4953070;28;20394;-81
2022/05/24 01:24:57;;;;;;;7.32;4.25;;;;;;;;;;4949161;28;20034;-82
2022/05/24 01:27:23;;;;;;;17.90;5.95;;;;;;;;;;4948144;28;20559;-82
2022/05/24 01:29:49;;;;;;;10.73;4.95;;;;;;;;;;4954715;28;20041;-81
2022/05/24 01:37:45;;;;;;;13.25;6.15;;;;;;;;;;4965849;28;20097;-82
2022/05/24 01:40:11;;;;;;;10.18;5.82;;;;;;;;;;4959373;28;20085;-81
2022/05/24 01:42:37;;;;;;;14.73;6.45;;;;;;;;;;4947744;28;20049;-81
2022/05/24 01:45:10;;;;;;;12.95;6.32;;;;;;;;;;4948585;28;20039;-81
2022/05/24 01:47:36;;;;;;;11.85;5.40;;;;;;;;;;4949893;28;20333;-81
2022/05/24 01:50:06;;;;;;;14.80;6.85;;;;;;;;;;4945762;28;20042;-81
2022/05/24 01:52:40;;;;;;;12.80;7.07;;;;;;;;;;4949168;28;22673;-81
2022/05/24 01:55:12;;;;;;;22.38;7.38;;;;;;;;;;4946114;28;20035;-81
2022/05/24 01:57:44;;;;;;;15.98;6.95;;;;;;;;;;4947088;28;20039;-81
2022/05/24 02:00:12;;;;;;;15.07;7.13;;;;;;;;;;4954053;28;20221;-81
2022/05/24 02:02:38;;;;;;;18.45;7.72;;;;;;;;;;4970639;28;20088;-82
2022/05/24 02:05:05;;;;;;;13.10;7.05;;;;;;;;;;4968532;28;20069;-81
2022/05/24 02:07:33;;;;;;;16.92;7.35;;;;;;;;;;4978437;28;20062;-81
2022/05/24 02:09:59;;;;;;;13.52;7.05;;;;;;;;;;4959919;28;20437;-82
2022/05/24 02:12:29;;;;;;;16.35;7.82;;;;;;;;;;4946099;28;20122;-81
2022/05/24 02:15:00;;;;;;;15.20;7.43;;;;;;;;;;4967197;28;20030;-81
2022/05/24 02:17:35;;;;;;;19.38;8.27;;;;;;;;;;4953594;28;20504;-82
2022/05/24 02:20:03;;;;;;;15.68;7.40;;;;;;;;;;4962644;28;20059;-82
2022/05/24 02:22:29;;;;;;;14.43;8.27;;;;;;;;;;4966382;28;20393;-82
2022/05/24 02:24:57;;;;;;;19.83;7.72;;;;;;;;;;4955054;28;20019;-81
2022/05/24 02:27:23;;;;;;;17.52;8.50;;;;;;;;;;4959661;28;20035;-82
2022/05/24 02:29:49;;;;;;;15.07;7.65;;;;;;;;;;4967754;28;20042;-82
2022/05/24 02:32:15;;;;;;;17.55;8.50;;;;;;;;;;4947588;28;20031;-81
2022/05/24 02:34:41;;;;;;;20.77;7.95;;;;;;;;;;4952302;28;20662;-82
2022/05/24 02:37:07;;;;;;;15.73;8.40;;;;;;;;;;4946188;28;20038;-81
2022/05/24 02:41:28;;;;;;;16.85;7.28;;;;;;;;;;4951500;28;20034;-81
2022/05/24 02:42:19;;;;;;;20.25;6.75;;;;;;;;;;4963953;28;20030;-81
2022/05/24 02:44:45;;;;;;;14.77;8.23;;;;;;;;;;4955452;28;20030;-82
2022/05/24 02:47:11;;;;;;;21.10;8.82;;;;;;;;;;4965872;28;20494;-81
2022/05/24 02:49:38;;;;;;;16.42;8.90;;;;;;;;;;4945052;28;20039;-82
2022/05/24 02:52:11;;;;;;;13.10;7.82;;;;;;;;;;4950730;28;20059;-81
2022/05/24 02:54:37;;;;;;;16.17;9.55;;;;;;;;;;4961641;28;20394;-81
2022/05/24 02:57:04;;;;;;;25.67;8.43;;;;;;;;;;4947445;28;20126;-81
2022/05/24 02:59:43;;;;;;;18.55;9.13;;;;;;;;;;4967129;28;20031;-82
2022/05/24 03:02:09;;;;;;;16.77;8.40;;;;;;;;;;4964728;28;20114;-81
2022/05/24 03:04:35;;;;;;;19.85;8.75;;;;;;;;;;4951107;28;20058;-81
2022/05/24 03:09:46;;;;;;;18.20;9.07;;;;;;;;;;4964109;28;20049;-82
2022/05/24 03:14:57;;;;;;;20.88;8.45;;;;;;;;;;4964418;28;20097;-81
2022/05/24 03:17:24;;;;;;;17.38;9.75;;;;;;;;;;4963072;28;20054;-81
2022/05/24 03:19:51;;;;;;;19.75;9.55;;;;;;;;;;4963125;28;20463;-81
2022/05/24 03:22:18;;;;;;;20.55;10.18;;;;;;;;;;4947119;28;20058;-81
2022/05/24 03:24:44;;;;;;;18.75;9.55;;;;;;;;;;4946494;28;20027;-81
2022/05/24 03:27:13;;;;;;;17.17;11.25;;;;;;;;;;4950537;28;20034;-81
2022/05/24 03:29:40;;;;;;;21.52;10.48;;;;;;;;;;4964369;28;20038;-81
2022/05/24 03:32:07;;;;;;;23.42;9.80;;;;;;;;;;4950281;28;20478;-81
2022/05/24 03:34:34;;;;;;;20.60;9.90;;;;;;;;;;4952836;28;20042;-82
2022/05/24 03:37:00;;;;;;;19.90;10.07;;;;;;;;;;4946530;28;20117;-81
2022/05/24 03:39:26;;;;;;;22.58;11.60;;;;;;;;;;4962098;28;20057;-82
2022/05/24 03:41:52;;;;;;;23.75;12.40;;;;;;;;;;4962025;28;20066;-81
2022/05/24 03:44:19;;;;;;;26.58;13.13;;;;;;;;;;4953951;28;20487;-82
2022/05/24 03:46:46;;;;;;;23.13;11.40;;;;;;;;;;4942209;28;20101;-81
2022/05/24 03:49:14;;;;;;;29.20;13.35;;;;;;;;;;4946518;28;20046;-81
2022/05/24 03:51:40;;;;;;;20.52;11.57;;;;;;;;;;4947521;28;20533;-81
2022/05/24 03:54:06;;;;;;;25.95;14.13;;;;;;;;;;4946825;28;20042;-82
2022/05/24 03:56:33;;;;;;;30.25;13.80;;;;;;;;;;4962633;28;20117;-81
2022/05/24 03:58:59;;;;;;;30.00;15.85;;;;;;;;;;4948437;28;20042;-81
2022/05/24 04:01:25;;;;;;;26.17;13.32;;;;;;;;;;4969134;28;20054;-82
2022/05/24 04:03:51;;;;;;;33.88;15.85;;;;;;;;;;4962160;28;20026;-81
2022/05/24 04:06:17;;;;;;;32.85;14.52;;;;;;;;;;4967213;28;20043;-87
2022/05/24 04:08:45;;;;;;;33.80;14.35;;;;;;;;;;4980718;28;20109;-87
2022/05/24 04:11:11;;;;;;;32.13;16.45;;;;;;;;;;4961956;28;20394;-81
2022/05/24 04:13:39;;;;;;;35.67;16.35;;;;;;;;;;4959258;28;20023;-82
2022/05/24 04:16:05;;;;;;;37.22;17.25;;;;;;;;;;4976556;28;20443;-87
2022/05/24 04:18:32;;;;;;;37.95;16.70;;;;;;;;;;4966426;28;20046;-87
2022/05/24 04:20:58;;;;;;;38.10;18.10;;;;;;;;;;4964938;28;20030;-87
2022/05/24 04:23:25;;;;;;;30.13;15.50;;;;;;;;;;4970250;28;20072;-87
2022/05/24 04:25:52;;;;;;;26.13;11.65;;;;;;;;;;4982306;28;20014;-87
2022/05/24 04:28:18;;;;;;;27.45;14.68;;;;;;;;;;4968889;28;20030;-87
2022/05/24 04:30:45;;;;;;;35.63;16.58;;;;;;;;;;4968253;28;20583;-87
2022/05/24 04:33:12;;;;;;;34.78;17.25;;;;;;;;;;4963819;28;20052;-87
2022/05/24 04:35:38;;;;;;;38.83;16.63;;;;;;;;;;4968929;28;20057;-87
2022/05/24 04:38:05;;;;;;;26.50;13.63;;;;;;;;;;4967482;28;20093;-85
2022/05/24 04:43:15;;;;;;;41.42;17.05;;;;;;;;;;4984321;28;20037;-87
2022/05/24 04:45:42;;;;;;;38.60;17.92;;;;;;;;;;4969723;28;20478;-87
2022/05/24 04:48:08;;;;;;;43.42;14.77;;;;;;;;;;4965609;28;20034;-85
2022/05/24 04:50:34;;;;;;;33.05;15.25;;;;;;;;;;4981338;28;20026;-86
2022/05/24 04:53:01;;;;;;;32.83;15.48;;;;;;;;;;4970329;28;20450;-86
2022/05/24 04:55:28;;;;;;;32.58;14.52;;;;;;;;;;4965886;28;20030;-87
2022/05/24 04:57:55;;;;;;;27.50;14.98;;;;;;;;;;4980129;28;20563;-87
2022/05/24 05:00:34;;;;;;;25.13;13.27;;;;;;;;;;4963292;28;20043;-87
2022/05/24 05:03:06;;;;;;;31.77;13.45;;;;;;;;;;4968614;28;20125;-84
2022/05/24 05:05:32;;;;;;;25.05;14.15;;;;;;;;;;4970444;28;20398;-87
2022/05/24 05:07:58;;;;;;;26.92;15.00;;;;;;;;;;4969015;28;20046;-87
2022/05/24 05:10:24;;;;;;;26.23;13.73;;;;;;;;;;4978166;28;20027;-87
2022/05/24 05:12:50;;;;;;;24.67;12.80;;;;;;;;;;4983596;28;20478;-86
2022/05/24 05:15:16;;;;;;;32.50;13.70;;;;;;;;;;4978589;28;20038;-86
2022/05/24 05:17:42;;;;;;;22.50;12.00;;;;;;;;;;4978000;28;20092;-86
2022/05/24 05:20:09;;;;;;;35.13;11.93;;;;;;;;;;4968472;28;20117;-87
2022/05/24 05:22:37;;;;;;;26.10;11.23;;;;;;;;;;4968971;28;20026;-87
2022/05/24 05:25:03;;;;;;;22.30;11.40;;;;;;;;;;4980477;28;20455;-86
2022/05/24 05:27:29;;;;;;;20.70;10.68;;;;;;;;;;4964802;28;20550;-87
2022/05/24 05:32:39;;;;;;;24.55;11.50;;;;;;;;;;4984462;28;20682;-86
2022/05/24 05:35:07;;;;;;;22.08;9.65;;;;;;;;;;4966832;28;20050;-86
2022/05/24 05:37:33;;;;;;;21.40;11.43;;;;;;;;;;4963804;28;20035;-85
2022/05/24 05:40:04;;;;;;;17.90;9.93;;;;;;;;;;4971117;28;20170;-86
2022/05/24 05:42:30;;;;;;;21.77;10.07;;;;;;;;;;4981826;28;20042;-86
2022/05/24 05:44:57;;;;;;;26.23;11.13;;;;;;;;;;4967202;28;20065;-86
2022/05/24 05:47:23;;;;;;;25.17;11.55;;;;;;;;;;4965063;28;20949;-87
2022/05/24 05:49:49;;;;;;;19.35;10.20;;;;;;;;;;4983941;28;21024;-87
2022/05/24 05:52:16;;;;;;;23.65;11.20;;;;;;;;;;4969795;28;20030;-87
2022/05/24 05:54:42;;;;;;;24.10;11.20;;;;;;;;;;4971623;28;20426;-87
2022/05/24 05:57:08;;;;;;;25.88;11.82;;;;;;;;;;4972717;28;20046;-87
2022/05/24 05:59:34;;;;;;;25.27;11.07;;;;;;;;;;4976163;28;20029;-87
2022/05/24 06:02:14;;;;;;;26.33;11.30;;;;;;;;;;4957511;28;20057;-86
2022/05/24 06:04:40;;;;;;;16.83;11.00;;;;;;;;;;4976167;28;20117;-86
2022/05/24 06:07:06;;;;;;;28.90;12.23;;;;;;;;;;4974327;28;20134;-87
2022/05/24 06:09:32;;;;;;;25.40;11.90;;;;;;;;;;4960406;28;20494;-87
2022/05/24 06:11:59;;;;;;;20.38;12.00;;;;;;;;;;4958721;28;20037;-84
2022/05/24 06:14:25;;;;;;;29.17;11.75;;;;;;;;;;4959686;28;20385;-86
2022/05/24 06:16:51;;;;;;;41.08;12.93;;;;;;;;;;4972275;28;20035;-81
2022/05/24 06:19:17;;;;;;;30.80;12.25;;;;;;;;;;4966709;28;20540;-81
2022/05/24 06:21:43;;;;;;;27.60;14.05;;;;;;;;;;4952031;28;20061;-86
2022/05/24 06:24:09;;;;;;;27.75;13.57;;;;;;;;;;4952085;28;20042;-87
2022/05/24 06:26:36;;;;;;;33.05;13.57;;;;;;;;;;4971603;28;20023;-85
2022/05/24 06:29:03;;;;;;;32.30;13.57;;;;;;;;;;4953940;28;20038;-81
2022/05/24 06:31:29;;;;;;;28.45;12.05;;;;;;;;;;4953428;28;20038;-80
2022/05/24 06:33:55;;;;;;;27.05;13.10;;;;;;;;;;4953961;28;20031;-80
2022/05/24 06:36:21;;;;;;;23.48;11.98;;;;;;;;;;4953165;28;20038;-80
2022/05/24 06:38:48;;;;;;;23.83;11.32;;;;;;;;;;4951641;28;20027;-80
2022/05/24 06:41:14;;;;;;;23.25;12.25;;;;;;;;;;4947142;28;20126;-79
2022/05/24 06:43:40;;;;;;;30.67;12.52;;;;;;;;;;4953992;28;20034;-80
2022/05/24 06:46:09;;;;;;;39.92;14.20;;;;;;;;;;4950402;28;20035;-81
2022/05/24 06:48:36;;;;;;;25.65;13.98;;;;;;;;;;4952840;28;20027;-80
2022/05/24 06:51:07;;;;;;;16.73;8.63;;;;;;;;;;4952174;28;20493;-80
2022/05/24 06:53:34;;;;;;;33.05;12.75;;;;;;;;;;4949784;28;20043;-80
2022/05/24 06:56:00;;;;;;;24.73;13.05;;;;;;;;;;4968840;28;20486;-79
2022/05/24 06:58:26;;;;;;;27.25;12.80;;;;;;;;;;4944516;28;20034;-78
2022/05/24 07:03:38;;;;;;;32.25;13.05;;;;;;;;;;4987777;28;20505;-79
2022/05/24 07:06:05;;;;;;;35.03;15.32;;;;;;;;;;4982540;28;20026;-80
2022/05/24 07:08:31;;;;;;;40.28;16.35;;;;;;;;;;4968387;28;20035;-80
2022/05/24 07:10:57;;;;;;;47.97;17.73;;;;;;;;;;4973959;28;20030;-80
2022/05/24 07:13:23;;;;;;;29.80;15.70;;;;;;;;;;4975192;28;20108;-80
2022/05/24 07:15:50;;;;;;;33.13;14.60;;;;;;;;;;4975850;28;20038;-80
2022/05/24 07:18:16;;;;;;;28.80;15.38;;;;;;;;;;4979608;28;20077;-80
2022/05/24 07:20:42;;;;;;;36.08;15.40;;;;;;;;;;4973694;28;20045;-80
2022/05/24 07:23:10;;;;;;;31.65;13.45;;;;;;;;;;4970772;28;20491;-79
2022/05/24 07:25:37;;;;;;;24.17;11.45;;;;;;;;;;4974748;28;20054;-79
2022/05/24 07:28:04;;;;;;;30.33;10.52;;;;;;;;;;4964805;28;20057;-80
2022/05/24 07:30:31;;;;;;;31.55;10.23;;;;;;;;;;4981668;28;20501;-80
2022/05/24 07:32:57;;;;;;;11.55;6.88;;;;;;;;;;4962926;28;20034;-80
2022/05/24 07:35:23;;;;;;;24.42;9.27;;;;;;;;;;4959177;28;20027;-80
2022/05/24 07:37:49;;;;;;;25.17;10.32;;;;;;;;;;4988619;28;20026;-79
2022/05/24 07:45:50;;;;;;;14.50;8.05;;;;;;;;;;4980089;28;20109;-79
2022/05/24 07:48:18;;;;;;;23.15;7.82;;;;;;;;;;4966198;28;20382;-80
2022/05/24 07:50:45;;;;;;;13.73;4.68;;;;;;;;;;4981193;28;20453;-80
2022/05/24 07:53:11;;;;;;;16.20;6.40;;;;;;;;;;4962920;28;20031;-80
2022/05/24 07:55:37;;;;;;;12.65;5.95;;;;;;;;;;4970292;28;20040;-80
2022/05/24 07:58:03;;;;;;;9.13;6.13;;;;;;;;;;4980999;28;20065;-80
2022/05/24 08:00:30;;;;;;;11.20;5.20;;;;;;;;;;4967041;28;20045;-80
2022/05/24 08:02:56;;;;;;;18.13;6.38;;;;;;;;;;4965902;28;20123;-80
2022/05/24 08:05:23;;;;;;;19.10;6.68;;;;;;;;;;4968920;28;20072;-80
2022/05/24 08:07:49;;;;;;;13.27;6.03;;;;;;;;;;4965422;28;20061;-80
2022/05/24 08:10:16;;;;;;;22.60;7.05;;;;;;;;;;4980803;28;20113;-80
2022/05/24 08:12:42;;;;;;;14.57;6.25;;;;;;;;;;4981222;28;20030;-80
2022/05/24 08:15:09;;;;;;;17.77;5.80;;;;;;;;;;4978547;28;20056;-80
2022/05/24 08:17:35;;;;;;;21.92;7.72;;;;;;;;;;4964838;28;20371;-80
2022/05/24 08:20:01;;;;;;;16.58;6.13;;;;;;;;;;4968213;28;20033;-85
2022/05/24 08:22:27;;;;;;;16.15;6.65;;;;;;;;;;4983484;28;20026;-85
2022/05/24 08:24:53;;;;;;;21.73;6.32;;;;;;;;;;4969506;28;20397;-84
2022/05/24 08:27:19;;;;;;;25.38;6.90;;;;;;;;;;4982100;28;20058;-85
2022/05/24 08:29:46;;;;;;;16.75;7.70;;;;;;;;;;4969848;28;20026;-85
2022/05/24 08:32:16;;;;;;;19.17;6.80;;;;;;;;;;4979976;28;20039;-85
2022/05/24 08:34:42;;;;;;;11.38;6.78;;;;;;;;;;4979095;28;20039;-85
2022/05/24 08:37:08;;;;;;;9.30;4.35;;;;;;;;;;4970423;28;20473;-85
2022/05/24 08:39:34;;;;;;;24.23;7.30;;;;;;;;;;4988901;28;20113;-86
2022/05/24 08:42:13;;;;;;;15.05;6.63;;;;;;;;;;4975228;28;20129;-84
2022/05/24 08:50:18;;;;;;;14.50;7.50;;;;;;;;;;4986814;28;20046;-85
2022/05/24 08:52:57;;;;;;;15.15;8.20;;;;;;;;;;4986786;28;20034;-84
2022/05/24 08:55:25;;;;;;;21.23;8.13;;;;;;;;;;4977974;28;20077;-85
2022/05/24 08:57:52;;;;;;;23.50;8.00;;;;;;;;;;4984982;28;20113;-85
2022/05/24 09:00:37;;;;;;;23.92;8.88;;;;;;;;;;4983482;28;20031;-85
2022/05/24 09:03:05;;;;;;;16.35;8.70;;;;;;;;;;4957118;28;20435;-85
2022/05/24 09:05:34;;;;;;;17.23;6.95;;;;;;;;;;4950178;28;20035;-84
2022/05/24 09:08:06;;;;;;;19.45;8.15;;;;;;;;;;4965100;28;20043;-79
2022/05/24 09:10:39;;;;;;;23.98;9.55;;;;;;;;;;4960892;28;20350;-81
2022/05/24 09:13:14;;;;;;;14.30;8.43;;;;;;;;;;4960490;28;20097;-81
2022/05/24 09:15:40;;;;;;;14.38;8.05;;;;;;;;;;4943022;28;20097;-81
2022/05/24 09:18:06;;;;;;;14.00;6.80;;;;;;;;;;4950009;28;20043;-81
2022/05/24 09:20:40;;;;;;;18.48;9.65;;;;;;;;;;4952572;28;20552;-81
2022/05/24 09:23:09;;;;;;;12.23;7.65;;;;;;;;;;4952970;28;20031;-81
2022/05/24 09:25:35;;;;;;;16.55;9.20;;;;;;;;;;4953331;28;20027;-80
2022/05/24 09:28:01;;;;;;;19.42;11.07;;;;;;;;;;4948960;28;20549;-86
2022/05/24 09:30:30;;;;;;;25.70;11.25;;;;;;;;;;4957199;28;20070;-86
2022/05/24 09:33:15;;;;;;;20.92;8.90;;;;;;;;;;4974006;28;20509;-86
2022/05/24 09:35:42;;;;;;;20.88;6.78;;;;;;;;;;4957067;28;20031;-82
2022/05/24 09:38:16;;;;;;;8.70;4.10;;;;;;;;;;4955266;28;20502;-82
2022/05/24 09:40:47;;;;;;;5.32;2.97;;;;;;;;;;4962839;28;20090;-81
2022/05/24 09:43:33;;;;;;;5.95;2.55;;;;;;;;;;4953277;28;20579;-80
2022/05/24 09:46:07;;;;;;;3.55;2.75;;;;;;;;;;4965997;28;20063;-80
2022/05/24 09:48:35;;;;;;;3.08;1.95;;;;;;;;;;4968209;28;20101;-81
2022/05/24 09:51:03;;;;;;;7.03;2.97;;;;;;;;;;4954096;28;20035;-82
2022/05/24 09:53:30;;;;;;;5.43;3.10;;;;;;;;;;4947064;28;20078;-81
2022/05/24 09:56:05;;;;;;;4.40;2.78;;;;;;;;;;4954125;28;20470;-81
2022/05/24 09:58:31;;;;;;;6.15;3.28;;;;;;;;;;4944017;28;20061;-81
2022/05/24 10:00:57;;;;;;;8.93;3.65;;;;;;;;;;4963708;28;20114;-81
2022/05/24 10:03:32;;;;;;;7.85;3.40;;;;;;;;;;4973951;28;20054;-81
2022/05/24 10:06:10;;;;;;;5.10;3.08;;;;;;;;;;4983461;28;20029;-81
2022/05/24 10:08:38;;;;;;;4.80;2.42;;;;;;;;;;4967215;28;20035;-81
2022/05/24 10:11:05;;;;;;;8.38;2.72;;;;;;;;;;4989571;28;20053;-81
2022/05/24 10:13:31;;;;;;;6.20;2.08;;;;;;;;;;4969380;28;20030;-82
2022/05/24 10:16:21;;;;;;;3.42;2.30;;;;;;;;;;4964144;28;20027;-81
2022/05/24 10:18:56;;;;;;;4.35;2.83;;;;;;;;;;4963282;28;20061;-81
2022/05/24 10:21:26;;;;;;;13.80;3.30;;;;;;;;;;4967672;28;20069;-81
2022/05/24 10:24:07;;;;;;;6.68;2.10;;;;;;;;;;4970470;28;20504;-81
2022/05/24 10:26:45;;;;;;;3.30;1.73;;;;;;;;;;4962325;28;20030;-81
2022/05/24 10:29:21;;;;;;;8.98;2.42;;;;;;;;;;4973371;28;20474;-80
2022/05/24 10:31:55;;;;;;;6.68;3.05;;;;;;;;;;4972619;28;20034;-79
2022/05/24 10:40:23;;;;;;;3.83;1.88;;;;;;;;;;4986602;28;20338;-79
2022/05/24 10:43:17;;;;;;;6.60;2.83;;;;;;;;;;4970102;28;20031;-79
2022/05/24 10:45:52;;;;;;;2.28;1.60;;;;;;;;;;4960857;28;20600;-79
2022/05/24 10:48:25;;;;;;;5.50;2.50;;;;;;;;;;4984291;28;20086;-80
2022/05/24 10:50:55;;;;;;;3.33;1.73;;;;;;;;;;4969384;28;20042;-80
2022/05/24 10:53:25;;;;;;;5.55;2.22;;;;;;;;;;4967739;28;20113;-78
2022/05/24 10:55:58;;;;;;;2.88;1.73;;;;;;;;;;4971379;28;20030;-79
2022/05/24 10:58:24;;;;;;;4.80;2.67;;;;;;;;;;4984674;28;20046;-80
2022/05/24 11:00:57;;;;;;;8.38;2.47;;;;;;;;;;4989021;28;20023;-79
2022/05/24 11:03:32;;;;;;;6.88;2.25;;;;;;;;;;4975148;28;20070;-79
2022/05/24 11:05:58;;;;;;;2.80;1.30;;;;;;;;;;4945781;28;20117;-83
2022/05/24 11:08:32;;;;;;;5.07;2.50;;;;;;;;;;4949255;28;20039;-79
2022/05/24 11:11:01;;;;;;;3.03;2.03;;;;;;;;;;4967966;28;20387;-80
2022/05/24 11:13:43;;;;;;;4.40;2.40;;;;;;;;;;4950657;28;20026;-80
2022/05/24 11:16:12;;;;;;;9.50;2.80;;;;;;;;;;4950968;28;20031;-80
2022/05/24 11:18:40;;;;;;;6.45;2.60;;;;;;;;;;4951494;28;20177;-80
2022/05/24 11:21:06;;;;;;;2.28;1.90;;;;;;;;;;4963471;28;20027;-80
2022/05/24 11:23:37;;;;;;;5.97;2.40;;;;;;;;;;4952188;28;20042;-80
2022/05/24 11:26:16;;;;;;;2.70;1.52;;;;;;;;;;4950704;28;20038;-81
2022/05/24 11:28:47;;;;;;;1.42;1.33;;;;;;;;;;4947189;28;20122;-80
2022/05/24 11:31:33;;;;;;;7.07;2.63;;;;;;;;;;4960512;28;20030;-80
2022/05/24 11:34:01;;;;;;;4.22;1.85;;;;;;;;;;4956037;28;20097;-80
2022/05/24 11:36:35;;;;;;;6.60;1.33;;;;;;;;;;4953505;28;20398;-80
2022/05/24 11:39:17;;;;;;;4.93;2.28;;;;;;;;;;4966576;28;20057;-79
2022/05/24 11:41:44;;;;;;;4.47;2.20;;;;;;;;;;4967653;28;20030;-79
2022/05/24 11:44:31;;;;;;;3.20;1.98;;;;;;;;;;4967727;28;20035;-79
2022/05/24 11:46:57;;;;;;;6.03;2.10;;;;;;;;;;4948036;28;20426;-79
2022/05/24 11:49:23;;;;;;;8.50;1.60;;;;;;;;;;4953409;28;20082;-80
2022/05/24 11:51:56;;;;;;;3.42;1.98;;;;;;;;;;4952552;28;20066;-80
2022/05/24 11:54:23;;;;;;;2.13;1.88;;;;;;;;;;4953410;28;20454;-80
2022/05/24 11:57:01;;;;;;;4.53;1.67;;;;;;;;;;4947381;28;20520;-80
2022/05/24 11:59:48;;;;;;;4.38;2.10;;;;;;;;;;4960959;28;20029;-80
2022/05/24 12:02:32;;;;;;;3.42;1.67;;;;;;;;;;4955201;28;20066;-79
2022/05/24 12:07:57;;;;;;;8.23;2.17;;;;;;;;;;4967700;28;20042;-80
2022/05/24 12:10:26;;;;;;;4.53;2.17;;;;;;;;;;4942416;28;20117;-80
2022/05/24 12:12:55;;;;;;;3.22;1.80;;;;;;;;;;4944519;28;20050;-80
2022/05/24 12:15:23;;;;;;;3.25;1.52;;;;;;;;;;4969627;28;20027;-80
2022/05/24 12:18:12;;;;;;;7.68;1.42;;;;;;;;;;4945808;28;20431;-80
2022/05/24 12:20:38;;;;;;;5.03;1.35;;;;;;;;;;4961581;28;20116;-80
2022/05/24 12:23:07;;;;;;;7.22;1.10;;;;;;;;;;4962817;28;20058;-80
2022/05/24 12:25:52;;;;;;;6.38;1.60;;;;;;;;;;4959387;28;20034;-80
2022/05/24 12:28:19;;;;;;;3.40;1.08;;;;;;;;;;4958147;28;20023;-80
2022/05/24 12:30:47;;;;;;;6.25;1.65;;;;;;;;;;4962918;28;20023;-79
2022/05/24 12:33:13;;;;;;;2.45;1.33;;;;;;;;;;4963287;28;20034;-80
2022/05/24 12:35:48;;;;;;;1.20;1.00;;;;;;;;;;4962728;28;20027;-79
2022/05/24 12:38:18;;;;;;;5.25;1.63;;;;;;;;;;4952542;28;20775;-79
2022/05/24 12:40:44;;;;;;;3.42;1.25;;;;;;;;;;4967736;28;20470;-80
2022/05/24 12:43:14;;;;;;;5.70;1.45;;;;;;;;;;4950612;28;20126;-80
2022/05/24 12:45:43;;;;;;;11.85;2.22;;;;;;;;;;4945158;28;20039;-79
2022/05/24 12:48:18;;;;;;;5.95;1.67;;;;;;;;;;4945968;28;20062;-79
2022/05/24 12:50:45;;;;;;;9.32;1.92;;;;;;;;;;4961744;28;20061;-79
2022/05/24 12:53:13;;;;;;;6.05;1.63;;;;;;;;;;4949182;28;20058;-79
2022/05/24 12:55:57;;;;;;;4.45;1.67;;;;;;;;;;4950424;28;20077;-79
2022/05/24 12:58:34;;;;;;;2.80;1.75;;;;;;;;;;4950925;28;20073;-80
2022/05/24 13:01:26;;;;;;;4.25;1.40;;;;;;;;;;4951326;28;20023;-79
2022/05/24 13:04:02;;;;;;;12.10;1.73;;;;;;;;;;4961061;28;20453;-79
2022/05/24 13:06:30;;;;;;;6.53;1.40;;;;;;;;;;4968276;28;20565;-80
2022/05/24 13:09:15;;;;;;;4.15;1.45;;;;;;;;;;4974575;28;20055;-80
2022/05/24 13:11:42;;;;;;;3.75;1.70;;;;;;;;;;4985784;28;20130;-80
2022/05/24 13:14:11;;;;;;;5.63;1.70;;;;;;;;;;4964670;28;20472;-80
2022/05/24 13:16:38;;;;;;;12.80;5.28;;;;;;;;;;4960648;28;20114;-80
2022/05/24 13:19:04;;;;;;;3.42;1.80;;;;;;;;;;4974111;28;20542;-80
2022/05/24 13:21:35;;;;;;;3.03;1.85;;;;;;;;;;4982059;28;20023;-80
2022/05/24 13:24:09;;;;;;;3.30;1.20;;;;;;;;;;4969720;28;20117;-80
2022/05/24 13:26:35;;;;;;;2.42;1.55;;;;;;;;;;4971204;28;20484;-79
2022/05/24 13:29:19;;;;;;;7.55;1.40;;;;;;;;;;4973088;28;20112;-79
2022/05/24 13:34:33;;;;;;;9.38;1.38;;;;;;;;;;4986960;28;20045;-79
2022/05/24 13:37:01;;;;;;;4.50;1.15;;;;;;;;;;4983900;28;20129;-80
2022/05/24 13:39:42;;;;;;;1.48;0.90;;;;;;;;;;4962763;28;20027;-79
2022/05/24 13:42:28;;;;;;;2.70;1.27;;;;;;;;;;4980084;28;20471;-79
2022/05/24 13:45:13;;;;;;;1.95;1.30;;;;;;;;;;4960487;28;20030;-80
2022/05/24 13:47:58;;;;;;;3.65;0.95;;;;;;;;;;4964936;28;20352;-80
2022/05/24 13:50:34;;;;;;;4.63;1.70;;;;;;;;;;4976196;28;20034;-80
2022/05/24 13:53:03;;;;;;;3.58;1.58;;;;;;;;;;4963290;28;20053;-80
2022/05/24 13:55:29;;;;;;;4.90;1.38;;;;;;;;;;4988077;28;20022;-80
2022/05/24 13:58:08;;;;;;;3.50;1.15;;;;;;;;;;4975474;28;20043;-80
2022/05/24 14:00:37;;;;;;;5.47;1.60;;;;;;;;;;4982770;28;20505;-80
2022/05/24 14:03:28;;;;;;;3.53;1.42;;;;;;;;;;4981133;28;20054;-80
2022/05/24 14:06:03;;;;;;;3.05;1.13;;;;;;;;;;4964162;28;20482;-80
2022/05/24 14:08:29;;;;;;;2.80;1.55;;;;;;;;;;4955269;28;20039;-80
2022/05/24 14:10:56;;;;;;;6.05;1.33;;;;;;;;;;4954345;28;20034;-81
2022/05/24 14:13:23;;;;;;;2.13;1.10;;;;;;;;;;4969110;28;20022;-80
2022/05/24 14:15:50;;;;;;;3.38;1.15;;;;;;;;;;4967791;28;20040;-81
2022/05/24 14:18:16;;;;;;;4.50;1.73;;;;;;;;;;4974719;28;20034;-80
2022/05/24 14:20:42;;;;;;;3.72;1.75;;;;;;;;;;4974019;28;20038;-86
2022/05/24 14:23:09;;;;;;;5.45;1.63;;;;;;;;;;4973374;28;20066;-85
2022/05/24 14:25:35;;;;;;;3.17;1.67;;;;;;;;;;4988611;28;20509;-86
2022/05/24 14:28:02;;;;;;;3.17;1.77;;;;;;;;;;4972937;28;20041;-86
2022/05/24 14:30:29;;;;;;;6.95;3.03;;;;;;;;;;4977287;28;20027;-86
2022/05/24 14:32:59;;;;;;;5.85;2.10;;;;;;;;;;4963442;28;20376;-86
2022/05/24 14:35:27;;;;;;;3.00;1.98;;;;;;;;;;4990318;28;20037;-86
2022/05/24 14:37:53;;;;;;;5.60;1.80;;;;;;;;;;4974386;28;20488;-86
2022/05/24 14:40:19;;;;;;;4.45;2.15;;;;;;;;;;4968881;28;20059;-87
2022/05/24 14:42:47;;;;;;;4.07;2.20;;;;;;;;;;4965502;28;20129;-86
2022/05/24 14:45:13;;;;;;;3.38;2.40;;;;;;;;;;4984945;28;20125;-85
2022/05/24 14:47:39;;;;;;;7.65;2.63;;;;;;;;;;4988468;28;20030;-87
2022/05/24 14:50:05;;;;;;;7.43;2.58;;;;;;;;;;4975944;28;20153;-85
2022/05/24 14:52:34;;;;;;;6.07;2.00;;;;;;;;;;4970250;28;20038;-85
2022/05/24 14:55:00;;;;;;;4.63;2.58;;;;;;;;;;4975128;28;20048;-86
2022/05/24 14:57:26;;;;;;;6.03;2.38;;;;;;;;;;4971588;28;20030;-87
2022/05/24 14:59:53;;;;;;;8.93;4.43;;;;;;;;;;4986923;28;20057;-87
2022/05/24 15:02:19;;;;;;;3.75;2.63;;;;;;;;;;4968994;28;20109;-86
2022/05/24 15:04:46;;;;;;;8.02;2.17;;;;;;;;;;4987535;28;20050;-87
2022/05/24 15:15:30;;;;;;;6.90;2.65;;;;;;;;;;4983853;28;20455;-87
2022/05/24 15:17:56;;;;;;;5.63;2.40;;;;;;;;;;4980362;28;20069;-90
2022/05/24 15:20:24;;;;;;;5.43;2.35;;;;;;;;;;4950688;28;20023;-87
2022/05/24 15:22:54;;;;;;;8.02;3.05;;;;;;;;;;4962681;28;20510;-88
2022/05/24 15:25:24;;;;;;;4.97;2.50;;;;;;;;;;4951641;28;20092;-87
2022/05/24 15:27:50;;;;;;;4.35;2.50;;;;;;;;;;4963594;28;20062;-88
2022/05/24 15:30:16;;;;;;;4.43;2.67;;;;;;;;;;4967513;28;20041;-87
2022/05/24 15:32:42;;;;;;;4.15;2.78;;;;;;;;;;4955339;28;20466;-88